Accueil
METAR-TAF:

METAR-TAF

Aéroports :

Memmingen, Allemagne

latitude: 47-59-33N, longitude: 10-14-37E, altitude: 633 m

Observation

Le bulletin a été fait il y a 28 minutes, à 02:20 UTC
Vent 11 kt de sud-ouest
Température 0°C
Humidité 93%
Pression 992 hPa
Visibilité: 6000 m

METAR: EDJA 050220Z AUTO 23011KT 6000 // OVC004/// M00/M01 Q0992

Heure: 03:48 (02:48 UTC)

Prévision

Le bulletin a été fait il y a 9 heures et 48 minutes, à 17:00 UTC
Prévision valable du 04 à 18 UTC au 05 à 03 UTC
Vent 3 kt de direction variable
Visibilité 10 km ou plus
pas de nuages en-dessous de 1500 mètres et pas de cumulonimbus.
Probabilité 30% :
Temporairement
du 04 à 18 UTC au 04 à 24 UTC
Visibilité: 4000 m
Nuages fragmentés à une hauteur de 400 ft
brume
Evoluant progressivement
du 04 à 23 UTC au 05 à 02 UTC
Vent 10 kt de ouest/sud-ouest

TAF: EDJA 041700Z 0418/0503 VRB03KT CAVOK PROB30 TEMPO 0418/0424 4000 BR BKN004 BECMG 0423/0502 25010KT

Observations et prévisions météorologiques de plus de 4000 aéroports (messages METAR et TAF).

Les stations disponibles sont représentées par des disques jaunes et rouges sur la carte.

Passer la souris dessus pour voir le nom de la station.

Cliquer dessus pour voir les observations et prévisions météorologiques.

Pour changer de carte: cliquez sur les boutons verts avec une croix noire pour zoomer, sur le bouton vert avec un tiret pour effectuer un zoom arrière, ou sur les flèches vertes pour les cartes adjacentes.


METAR-TAF: